createdAt,value
2022-11-04T00:00:41.131Z,2.40
2022-11-04T00:03:10.802Z,2.30
2022-11-04T00:05:40.144Z,2.10
2022-11-04T00:08:25.463Z,2.20
2022-11-04T00:11:18.004Z,2.30
2022-11-04T00:13:48.916Z,3.90
2022-11-04T00:16:36.746Z,2.90
2022-11-04T00:19:06.268Z,2.70
2022-11-04T00:21:53.898Z,2.10
2022-11-04T00:24:41.527Z,2.80
2022-11-04T00:27:35.487Z,2.90
2022-11-04T00:30:07.430Z,2.70
2022-11-04T00:32:56.005Z,2.40
2022-11-04T00:35:25.455Z,2.30
2022-11-04T00:37:54.731Z,2.70
2022-11-04T00:40:23.854Z,2.30
2022-11-04T00:42:53.106Z,2.20
2022-11-04T00:45:22.108Z,2.40
2022-11-04T00:47:51.245Z,2.00
2022-11-04T00:50:20.571Z,2.30
2022-11-04T00:52:49.888Z,2.50
2022-11-04T00:55:19.247Z,2.10
2022-11-04T00:57:48.383Z,2.10
2022-11-04T01:00:18.088Z,2.30
2022-11-04T01:02:47.654Z,2.70
2022-11-04T01:05:17.179Z,2.30
2022-11-04T01:07:46.590Z,2.00
2022-11-04T01:10:15.998Z,2.30
2022-11-04T01:12:45.485Z,2.00
2022-11-04T01:15:14.887Z,2.20
2022-11-04T01:17:44.497Z,2.30
2022-11-04T01:20:15.025Z,2.40
2022-11-04T01:22:44.431Z,2.20
2022-11-04T01:25:13.854Z,2.20
2022-11-04T01:27:43.026Z,2.60
2022-11-04T01:30:14.063Z,2.10
2022-11-04T01:32:47.056Z,2.20
2022-11-04T01:35:16.431Z,1.90
2022-11-04T01:37:45.784Z,2.10
2022-11-04T01:40:15.150Z,2.60
2022-11-04T01:42:44.430Z,1.90
2022-11-04T01:45:20.409Z,2.20
2022-11-04T01:48:08.813Z,2.00
2022-11-04T01:50:39.426Z,2.10
2022-11-04T01:53:26.195Z,2.20
2022-11-04T01:56:01.822Z,1.90
2022-11-04T01:58:36.501Z,1.80
2022-11-04T02:01:05.717Z,2.20
2022-11-04T02:03:39.878Z,1.90
2022-11-04T02:06:11.046Z,2.60
2022-11-04T02:08:42.577Z,2.60
2022-11-04T02:11:12.545Z,2.50
2022-11-04T02:13:42.466Z,2.10
2022-11-04T02:16:41.755Z,2.50
2022-11-04T02:19:35.396Z,2.50
2022-11-04T02:22:31.782Z,1.80
2022-11-04T02:25:29.133Z,2.20
2022-11-04T02:28:12.667Z,1.90
2022-11-04T02:31:19.025Z,2.00
2022-11-04T02:34:18.416Z,2.40
2022-11-04T02:37:10.602Z,2.70
2022-11-04T02:40:02.550Z,2.10
2022-11-04T02:43:54.132Z,2.10
2022-11-04T02:47:22.186Z,2.00
2022-11-04T02:50:07.238Z,2.30
2022-11-04T02:52:51.564Z,2.60
2022-11-04T02:55:58.383Z,2.50
2022-11-04T02:58:41.550Z,2.40
2022-11-04T03:01:16.368Z,2.20
2022-11-04T03:03:58.247Z,2.30
2022-11-04T03:06:29.342Z,2.80
2022-11-04T03:09:01.280Z,2.10
2022-11-04T03:11:32.400Z,2.60
2022-11-04T03:14:09.593Z,2.10
2022-11-04T03:16:52.615Z,2.30
2022-11-04T03:19:42.677Z,2.00
2022-11-04T03:22:22.140Z,1.60
2022-11-04T03:24:52.517Z,2.00
2022-11-04T03:27:36.545Z,2.00
2022-11-04T03:30:13.329Z,2.50
2022-11-04T03:33:21.162Z,2.10
2022-11-04T03:35:50.557Z,2.50
2022-11-04T03:38:22.549Z,2.10
2022-11-04T03:40:53.096Z,2.00
2022-11-04T03:43:30.561Z,1.90
2022-11-04T03:46:00.099Z,2.60
2022-11-04T03:48:29.756Z,2.20
2022-11-04T03:50:59.870Z,2.20
2022-11-04T03:53:31.669Z,2.30
2022-11-04T03:56:34.699Z,2.70
2022-11-04T03:59:57.675Z,2.40
2022-11-04T04:03:00.818Z,2.30
2022-11-04T04:05:55.629Z,2.40
2022-11-04T04:08:34.342Z,2.20
2022-11-04T04:12:02.488Z,2.20
2022-11-04T04:14:41.439Z,2.10
2022-11-04T04:17:13.656Z,1.80
2022-11-04T04:19:52.739Z,1.80
2022-11-04T04:22:29.408Z,2.30
2022-11-04T04:25:21.651Z,2.10
2022-11-04T04:27:53.082Z,2.50
2022-11-04T04:30:22.381Z,2.20
2022-11-04T04:33:11.199Z,2.40
2022-11-04T04:35:57.889Z,1.90
2022-11-04T04:38:52.240Z,2.40
2022-11-04T04:41:41.856Z,2.60
2022-11-04T04:44:49.194Z,2.80
2022-11-04T04:47:26.092Z,2.70
2022-11-04T04:50:01.460Z,2.60
2022-11-04T04:52:39.136Z,2.30
2022-11-04T04:55:10.337Z,2.80
2022-11-04T04:57:40.278Z,2.00
2022-11-04T05:00:14.435Z,2.50
2022-11-04T05:02:44.197Z,2.60
2022-11-04T05:07:45.237Z,2.40
2022-11-04T05:10:17.738Z,2.50
2022-11-04T05:13:05.982Z,2.70
2022-11-04T05:15:38.763Z,2.60
2022-11-04T05:18:08.268Z,2.40
2022-11-04T05:20:41.306Z,2.50
2022-11-04T05:23:13.201Z,2.40
2022-11-04T05:25:43.542Z,2.40
2022-11-04T05:28:12.611Z,2.70
2022-11-04T05:30:42.098Z,2.80
2022-11-04T05:33:11.515Z,2.70
2022-11-04T05:35:41.066Z,2.90
2022-11-04T05:38:10.404Z,2.70
2022-11-04T05:40:39.474Z,2.50
2022-11-04T05:43:09.247Z,2.60
2022-11-04T05:45:38.563Z,2.60
2022-11-04T05:48:08.139Z,2.80
2022-11-04T05:50:37.087Z,2.50
2022-11-04T05:53:06.506Z,3.00
2022-11-04T05:55:35.749Z,3.10
2022-11-04T05:58:04.879Z,3.00
2022-11-04T06:00:33.968Z,2.80
2022-11-04T06:03:04.376Z,3.00
2022-11-04T06:05:33.724Z,2.90
2022-11-04T06:08:02.710Z,3.00
2022-11-04T06:10:31.667Z,2.70
2022-11-04T06:13:03.315Z,2.50
2022-11-04T06:15:32.246Z,2.70
2022-11-04T06:18:01.499Z,3.00
2022-11-04T06:20:30.621Z,2.90
2022-11-04T06:22:59.752Z,3.10
2022-11-04T06:25:31.750Z,2.90
2022-11-04T06:28:00.883Z,2.60
2022-11-04T06:30:29.975Z,3.20
2022-11-04T06:32:59.219Z,3.10
2022-11-04T06:35:28.365Z,3.20
2022-11-04T06:37:57.822Z,3.20
2022-11-04T06:40:29.524Z,3.00
2022-11-04T06:42:58.659Z,3.50
2022-11-04T06:45:27.733Z,3.10
2022-11-04T06:47:56.848Z,3.30
2022-11-04T06:50:25.982Z,3.40
2022-11-04T06:52:55.494Z,3.40
2022-11-04T06:55:24.990Z,3.10
2022-11-04T06:57:53.940Z,3.40
2022-11-04T07:00:23.037Z,3.10
2022-11-04T07:02:52.215Z,3.10
2022-11-04T07:05:21.207Z,2.90
2022-11-04T07:07:50.148Z,2.90
2022-11-04T07:10:19.651Z,2.90
2022-11-04T07:12:48.857Z,2.90
2022-11-04T07:15:20.934Z,3.00
2022-11-04T07:17:52.562Z,2.70
2022-11-04T07:20:21.479Z,3.20
2022-11-04T07:22:50.332Z,2.80
2022-11-04T07:25:19.562Z,3.40
2022-11-04T07:27:49.082Z,2.90
2022-11-04T07:30:18.283Z,2.80
2022-11-04T07:32:47.948Z,3.20
2022-11-04T07:35:17.302Z,2.90
2022-11-04T07:37:46.461Z,2.80
2022-11-04T07:40:15.910Z,2.70
2022-11-04T07:42:44.957Z,3.30
2022-11-04T07:45:14.651Z,2.90
2022-11-04T07:47:43.626Z,3.30
2022-11-04T07:50:12.764Z,3.40
2022-11-04T07:52:41.980Z,3.30
2022-11-04T07:55:11.686Z,3.10
2022-11-04T07:57:40.767Z,3.60
2022-11-04T08:00:11.583Z,3.30
2022-11-04T08:02:40.939Z,2.90
2022-11-04T08:05:10.859Z,3.30
2022-11-04T08:07:40.084Z,3.20
2022-11-04T08:10:11.194Z,3.30
2022-11-04T08:12:40.450Z,3.60
2022-11-04T08:15:10.842Z,3.30
2022-11-04T08:17:41.213Z,2.80
2022-11-04T08:20:10.979Z,3.00
2022-11-04T08:22:40.185Z,3.00
2022-11-04T08:25:09.728Z,2.80
2022-11-04T08:27:38.837Z,3.20
2022-11-04T08:30:09.175Z,2.80
2022-11-04T08:32:38.154Z,3.20
2022-11-04T08:35:07.718Z,3.60
2022-11-04T08:37:39.756Z,3.40
2022-11-04T08:40:09.938Z,3.10
2022-11-04T08:42:39.074Z,3.40
2022-11-04T08:45:09.333Z,3.00
2022-11-04T08:47:40.321Z,3.00
2022-11-04T08:50:09.960Z,3.00
2022-11-04T08:52:39.174Z,3.00
2022-11-04T08:55:08.896Z,3.10
2022-11-04T08:57:38.188Z,3.30
2022-11-04T09:00:08.061Z,3.40
2022-11-04T09:02:37.045Z,3.60
2022-11-04T09:05:06.502Z,3.00
2022-11-04T09:07:36.411Z,3.10
2022-11-04T09:10:07.430Z,2.90
2022-11-04T09:12:36.475Z,3.00
2022-11-04T09:15:07.000Z,3.00
2022-11-04T09:17:36.103Z,3.10
2022-11-04T09:20:06.963Z,2.50
2022-11-04T09:22:37.945Z,3.20
2022-11-04T09:25:10.393Z,3.30
2022-11-04T09:27:39.772Z,3.50
2022-11-04T09:30:09.701Z,3.00
2022-11-04T09:32:38.879Z,3.10
2022-11-04T09:35:08.454Z,2.90
2022-11-04T09:37:37.579Z,2.50
2022-11-04T09:40:07.505Z,3.60
2022-11-04T09:43:03.141Z,3.20
2022-11-04T09:45:34.825Z,3.10
2022-11-04T09:48:13.689Z,3.10
2022-11-04T09:50:57.234Z,3.00
2022-11-04T09:53:53.255Z,2.90
2022-11-04T09:56:24.853Z,3.20
2022-11-04T09:58:54.589Z,3.00
2022-11-04T10:01:36.860Z,2.60
2022-11-04T10:04:31.655Z,3.00
2022-11-04T10:07:38.209Z,2.40
2022-11-04T10:10:50.361Z,2.70
2022-11-04T10:14:02.666Z,2.60
2022-11-04T10:17:24.904Z,2.80
2022-11-04T10:20:46.483Z,2.60
2022-11-04T10:23:47.567Z,3.00
2022-11-04T10:26:47.862Z,3.40
2022-11-04T10:29:44.663Z,3.20
2022-11-04T10:33:20.073Z,2.80
2022-11-04T10:36:07.702Z,2.80
2022-11-04T10:38:58.517Z,3.30
2022-11-04T10:41:40.319Z,2.70
2022-11-04T10:44:36.991Z,2.60
2022-11-04T10:47:49.821Z,3.20
2022-11-04T10:50:47.192Z,2.90
2022-11-04T10:53:22.408Z,2.90
2022-11-04T10:56:01.578Z,3.10
2022-11-04T10:58:36.517Z,3.40
2022-11-04T11:01:34.888Z,2.60
2022-11-04T11:04:10.942Z,3.00
2022-11-04T11:06:40.454Z,2.80
2022-11-04T11:09:22.441Z,2.90
2022-11-04T11:11:54.272Z,2.70
2022-11-04T11:14:34.207Z,2.70
2022-11-04T11:17:46.087Z,2.70
2022-11-04T11:20:26.176Z,2.60
2022-11-04T11:23:00.476Z,3.30
2022-11-04T11:25:35.723Z,3.40
2022-11-04T11:28:22.018Z,3.00
2022-11-04T11:30:51.073Z,3.30
2022-11-04T11:33:34.909Z,3.10
2022-11-04T11:36:28.707Z,2.70
2022-11-04T11:39:18.306Z,2.90
2022-11-04T11:42:07.383Z,2.60
2022-11-04T11:44:49.107Z,3.00
2022-11-04T11:47:30.044Z,3.20
2022-11-04T11:50:25.736Z,3.30
2022-11-04T11:52:55.741Z,3.20
2022-11-04T11:55:31.668Z,2.70
2022-11-04T12:01:33.728Z,3.30
2022-11-04T12:10:49.732Z,3.50
2022-11-04T12:13:51.715Z,3.00
2022-11-04T12:16:58.608Z,3.20
2022-11-04T12:19:48.359Z,3.20
2022-11-04T12:22:44.523Z,2.90
2022-11-04T12:26:02.906Z,2.80
2022-11-04T12:29:09.230Z,2.70
2022-11-04T12:32:05.091Z,2.50
2022-11-04T12:34:49.191Z,2.70
2022-11-04T12:37:59.943Z,2.70
2022-11-04T12:41:41.831Z,3.10
2022-11-04T12:44:21.272Z,2.80
2022-11-04T12:47:25.308Z,3.40
2022-11-04T12:50:19.490Z,3.60
2022-11-04T12:53:09.842Z,3.50
2022-11-04T12:56:23.983Z,3.30
2022-11-04T12:59:40.612Z,3.30
2022-11-04T13:02:31.629Z,3.00
2022-11-04T13:05:23.735Z,3.30
2022-11-04T13:08:16.676Z,3.30
2022-11-04T13:11:07.463Z,2.90
2022-11-04T13:13:41.025Z,3.40
2022-11-04T13:16:13.986Z,2.80
2022-11-04T13:18:46.730Z,3.20
2022-11-04T13:21:24.906Z,3.40
2022-11-04T13:24:00.970Z,3.30
2022-11-04T13:26:29.910Z,3.50
2022-11-04T13:29:14.064Z,3.00
2022-11-04T13:32:15.546Z,3.20
2022-11-04T13:35:27.581Z,3.40
2022-11-04T13:38:21.561Z,3.10
2022-11-04T13:41:26.394Z,3.60
2022-11-04T13:44:04.699Z,3.60
2022-11-04T13:46:36.462Z,2.80
2022-11-04T13:49:14.246Z,3.10
2022-11-04T13:52:02.134Z,3.10
2022-11-04T13:54:37.472Z,3.00
2022-11-04T13:57:31.899Z,4.20
2022-11-04T14:00:18.656Z,3.30
2022-11-04T14:03:31.101Z,3.00
2022-11-04T14:06:07.723Z,2.90
2022-11-04T14:08:37.130Z,3.50
2022-11-04T14:11:12.456Z,2.80
2022-11-04T14:13:46.764Z,3.70
2022-11-04T14:16:28.266Z,3.20
2022-11-04T14:18:57.412Z,3.70
2022-11-04T14:21:30.459Z,3.70
2022-11-04T14:24:16.551Z,3.70
2022-11-04T14:26:51.358Z,3.50
2022-11-04T14:29:26.302Z,3.70
2022-11-04T14:32:01.654Z,3.10
2022-11-04T14:34:38.813Z,3.60
2022-11-04T14:37:37.386Z,3.50
2022-11-04T14:40:29.968Z,3.40
2022-11-04T14:43:00.468Z,3.20
2022-11-04T14:45:41.006Z,3.20
2022-11-04T14:48:20.441Z,3.50
2022-11-04T14:50:54.952Z,3.80
2022-11-04T14:53:38.418Z,3.40
2022-11-04T14:56:23.779Z,3.20
2022-11-04T14:59:02.576Z,3.50
2022-11-04T15:01:40.292Z,3.60
2022-11-04T15:04:27.935Z,3.80
2022-11-04T15:06:59.953Z,3.70
2022-11-04T15:09:42.287Z,3.50
2022-11-04T15:12:29.903Z,3.20
2022-11-04T15:15:00.850Z,3.90
2022-11-04T15:17:35.462Z,3.30
2022-11-04T15:20:06.386Z,3.50
2022-11-04T15:22:36.438Z,3.60
2022-11-04T15:25:11.995Z,3.50
2022-11-04T15:27:43.665Z,3.30
2022-11-04T15:30:31.022Z,3.80
2022-11-04T15:33:15.387Z,3.00
2022-11-04T15:35:44.930Z,3.40
2022-11-04T15:38:16.705Z,3.30
2022-11-04T15:40:48.272Z,3.40
2022-11-04T15:43:17.982Z,3.60
2022-11-04T15:45:54.646Z,3.90
2022-11-04T15:48:38.874Z,3.80
2022-11-04T15:51:22.691Z,3.40
2022-11-04T15:54:01.117Z,3.20
2022-11-04T15:56:36.712Z,3.50
2022-11-04T15:59:23.909Z,3.80
2022-11-04T16:01:55.698Z,3.30
2022-11-04T16:04:29.578Z,3.40
2022-11-04T16:07:31.840Z,3.80
2022-11-04T16:10:05.365Z,3.70
2022-11-04T16:12:45.916Z,3.50
2022-11-04T16:15:39.525Z,3.00
2022-11-04T16:18:32.367Z,3.30
2022-11-04T16:21:07.120Z,3.60
2022-11-04T16:23:47.721Z,3.90
2022-11-04T16:26:17.455Z,3.90
2022-11-04T16:28:46.696Z,3.50
2022-11-04T16:31:39.214Z,3.20
2022-11-04T16:34:14.191Z,3.90
2022-11-04T16:36:43.158Z,3.70
2022-11-04T16:39:12.324Z,3.70
2022-11-04T16:41:42.981Z,3.40
2022-11-04T16:44:23.817Z,3.50
2022-11-04T16:46:53.254Z,3.60
2022-11-04T16:49:23.608Z,3.50
2022-11-04T16:52:02.623Z,3.00
2022-11-04T16:54:32.009Z,3.50
2022-11-04T16:57:02.029Z,3.50
2022-11-04T16:59:31.086Z,3.20
2022-11-04T17:02:00.287Z,3.60
2022-11-04T17:04:29.502Z,3.50
2022-11-04T17:06:58.475Z,3.60
2022-11-04T17:09:27.684Z,3.50
2022-11-04T17:11:57.308Z,3.40
2022-11-04T17:14:26.560Z,3.40
2022-11-04T17:16:58.031Z,3.50
2022-11-04T17:19:31.848Z,3.90
2022-11-04T17:22:07.851Z,3.40
2022-11-04T17:24:38.572Z,2.90
2022-11-04T17:27:07.654Z,3.90
2022-11-04T17:29:38.523Z,3.30
2022-11-04T17:32:07.829Z,3.30
2022-11-04T17:34:36.786Z,3.90
2022-11-04T17:37:05.951Z,4.00
2022-11-04T17:39:35.162Z,3.60
2022-11-04T17:42:22.662Z,3.30
2022-11-04T17:44:51.735Z,3.20
2022-11-04T17:47:20.630Z,3.10
2022-11-04T17:49:49.796Z,2.90
2022-11-04T17:52:21.972Z,3.30
2022-11-04T17:54:51.369Z,3.60
2022-11-04T17:57:20.561Z,2.90
2022-11-04T17:59:49.440Z,3.10
2022-11-04T18:02:19.248Z,3.40
2022-11-04T18:04:48.227Z,3.30
2022-11-04T18:07:17.269Z,3.10
2022-11-04T18:09:46.378Z,3.10
2022-11-04T18:12:33.843Z,3.40
2022-11-04T18:15:02.955Z,3.00
2022-11-04T18:17:31.889Z,3.50
2022-11-04T18:20:00.904Z,3.30
2022-11-04T18:22:30.035Z,3.10
2022-11-04T18:24:59.103Z,3.20
2022-11-04T18:27:28.058Z,3.30
2022-11-04T18:29:57.226Z,3.00
2022-11-04T18:32:26.275Z,3.00
2022-11-04T18:34:55.408Z,3.40
2022-11-04T18:37:24.986Z,3.50
2022-11-04T18:39:54.004Z,3.80
2022-11-04T18:42:23.295Z,3.40
2022-11-04T18:44:52.698Z,3.60
2022-11-04T18:47:23.915Z,2.80
2022-11-04T18:49:53.330Z,3.20
2022-11-04T18:52:22.528Z,2.80
2022-11-04T18:54:51.796Z,2.90
2022-11-04T18:57:20.999Z,2.90
2022-11-04T18:59:50.109Z,2.70
2022-11-04T19:02:27.135Z,2.80
2022-11-04T19:04:56.677Z,3.00
2022-11-04T19:07:25.952Z,2.70
2022-11-04T19:09:56.209Z,2.70
2022-11-04T19:12:43.303Z,2.80
2022-11-04T19:15:12.654Z,3.00
2022-11-04T19:17:41.645Z,3.10
2022-11-04T19:20:12.872Z,3.30
2022-11-04T19:22:42.928Z,2.80
2022-11-04T19:25:13.932Z,2.90
2022-11-04T19:27:43.151Z,2.60
2022-11-04T19:30:12.990Z,3.00
2022-11-04T19:32:48.321Z,2.60
2022-11-04T19:35:17.501Z,2.60
2022-11-04T19:37:46.625Z,2.90
2022-11-04T19:40:15.745Z,2.70
2022-11-04T19:43:02.784Z,3.00
2022-11-04T19:45:31.992Z,2.50
2022-11-04T19:48:01.020Z,4.10
2022-11-04T19:50:30.166Z,2.80
2022-11-04T19:52:59.221Z,2.80
2022-11-04T19:55:28.426Z,2.60
2022-11-04T19:57:57.766Z,2.60
2022-11-04T20:00:27.055Z,2.30
2022-11-04T20:02:56.855Z,2.50
2022-11-04T20:05:26.379Z,2.30
2022-11-04T20:07:56.951Z,2.50
2022-11-04T20:10:28.690Z,2.60
2022-11-04T20:13:15.797Z,2.50
2022-11-04T20:15:44.948Z,2.40
2022-11-04T20:18:13.797Z,2.30
2022-11-04T20:20:42.997Z,2.50
2022-11-04T20:23:12.096Z,2.60
2022-11-04T20:25:41.218Z,2.30
2022-11-04T20:28:10.676Z,2.10
2022-11-04T20:30:40.854Z,2.20
2022-11-04T20:33:09.846Z,2.20
2022-11-04T20:35:38.809Z,2.20
2022-11-04T20:38:08.542Z,2.40
2022-11-04T20:40:37.767Z,2.30
2022-11-04T20:43:07.146Z,2.20
2022-11-04T20:45:36.246Z,2.70
2022-11-04T20:48:05.403Z,2.40
2022-11-04T20:50:34.840Z,2.40
2022-11-04T20:53:03.939Z,2.10
2022-11-04T20:55:33.056Z,2.10
2022-11-04T20:58:02.254Z,1.80
2022-11-04T21:00:32.337Z,1.90
2022-11-04T21:03:01.348Z,2.40
2022-11-04T21:05:30.326Z,1.90
2022-11-04T21:07:59.435Z,1.90
2022-11-04T21:10:28.759Z,2.20
2022-11-04T21:12:57.814Z,2.00
2022-11-04T21:15:42.230Z,2.00
2022-11-04T21:18:14.244Z,1.90
2022-11-04T21:20:45.333Z,1.80
2022-11-04T21:23:16.421Z,1.80
2022-11-04T21:25:51.426Z,2.00
2022-11-04T21:28:20.515Z,2.00
2022-11-04T21:30:54.241Z,1.90
2022-11-04T21:33:23.674Z,1.90
2022-11-04T21:35:52.871Z,1.70
2022-11-04T21:38:22.215Z,1.70
2022-11-04T21:40:52.694Z,1.70
2022-11-04T21:43:21.851Z,2.00
2022-11-04T21:45:50.924Z,2.00
2022-11-04T21:48:20.054Z,1.60
2022-11-04T21:50:49.128Z,2.10
2022-11-04T21:53:18.352Z,2.20
2022-11-04T21:55:47.632Z,1.90
2022-11-04T21:58:16.679Z,1.70
2022-11-04T22:00:45.789Z,2.00
2022-11-04T22:03:15.174Z,1.50
2022-11-04T22:05:44.240Z,1.70
2022-11-04T22:08:22.576Z,1.90
2022-11-04T22:10:51.991Z,2.10
2022-11-04T22:13:21.959Z,1.90
2022-11-04T22:16:00.783Z,1.70
2022-11-04T22:18:35.644Z,2.00
2022-11-04T22:21:08.658Z,1.70
2022-11-04T22:23:39.337Z,1.80
2022-11-04T22:26:13.671Z,2.00
2022-11-04T22:28:43.051Z,2.00
2022-11-04T22:31:23.471Z,2.10
2022-11-04T22:33:54.705Z,1.70
2022-11-04T22:36:24.520Z,2.10
2022-11-04T22:38:53.997Z,1.70
2022-11-04T22:41:30.389Z,1.60
2022-11-04T22:44:00.144Z,2.00
2022-11-04T22:46:33.535Z,2.20
2022-11-04T22:49:02.819Z,1.70
2022-11-04T22:51:33.489Z,1.80
2022-11-04T22:54:07.940Z,2.30
2022-11-04T22:56:38.157Z,2.20
2022-11-04T22:59:08.913Z,1.80
2022-11-04T23:01:38.537Z,2.10
2022-11-04T23:04:12.771Z,1.90
2022-11-04T23:06:43.333Z,1.80
2022-11-04T23:09:14.845Z,2.10
2022-11-04T23:12:02.388Z,2.10
2022-11-04T23:14:43.498Z,2.10
2022-11-04T23:17:33.337Z,2.10
2022-11-04T23:20:03.057Z,2.00
2022-11-04T23:22:50.273Z,2.20
2022-11-04T23:25:22.293Z,2.00
2022-11-04T23:28:13.062Z,2.20
2022-11-04T23:30:51.721Z,2.40
2022-11-04T23:33:40.859Z,2.10
2022-11-04T23:36:29.112Z,2.30
2022-11-04T23:38:58.366Z,1.80
2022-11-04T23:41:45.806Z,1.90
2022-11-04T23:44:34.777Z,2.20
2022-11-04T23:47:22.395Z,1.90
2022-11-04T23:50:09.907Z,2.00
2022-11-04T23:52:57.219Z,1.60
2022-11-04T23:55:45.193Z,2.00
2022-11-04T23:58:32.547Z,1.90
